Time;durP1;ratioP1;P1;durP2;ratioP2;P2;SDS_P1;SDS_P2;PMS_P1;PMS_P2;Temp;Humidity;BMP_temperature;BMP_pressure;BME280_temperature;BME280_humidity;BME280_pressure;Samples;Min_cycle;Max_cycle;Signal;HPM_P1;HPM_P2
2022/04/01 00:02:22;;;;;;;10.60;8.60;;;1.00;99.90;;;;;;5036278;28;25068;-75
2022/04/01 00:04:48;;;;;;;12.25;9.32;;;1.10;99.90;;;;;;5041444;28;25078;-76
2022/04/01 00:07:14;;;;;;;19.52;10.80;;;1.00;99.90;;;;;;5050241;28;25109;-74
2022/04/01 00:09:40;;;;;;;15.60;10.48;;;1.00;99.90;;;;;;5031612;28;25083;-75
2022/04/01 00:12:07;;;;;;;13.57;8.88;;;1.10;99.90;;;;;;5029858;28;25078;-76
2022/04/01 00:14:32;;;;;;;13.30;9.93;;;1.00;99.90;;;;;;5032227;28;25070;-73
2022/04/01 00:16:58;;;;;;;15.30;10.57;;;1.00;99.90;;;;;;5031024;28;25078;-72
2022/04/01 00:19:24;;;;;;;15.65;10.50;;;1.00;99.90;;;;;;5029312;28;25078;-74
2022/04/01 00:21:50;;;;;;;13.35;9.48;;;1.10;99.90;;;;;;5011254;28;25113;-73
2022/04/01 00:24:16;;;;;;;13.82;10.38;;;1.10;99.90;;;;;;5040574;28;25157;-75
2022/04/01 00:26:42;;;;;;;12.10;9.10;;;0.90;99.90;;;;;;5049544;28;25143;-73
2022/04/01 00:29:16;;;;;;;14.32;9.10;;;0.90;99.90;;;;;;5032176;28;25098;-74
2022/04/01 00:31:48;;;;;;;10.98;8.88;;;1.10;99.90;;;;;;5031938;28;25064;-74
2022/04/01 00:34:16;;;;;;;14.73;10.57;;;0.90;99.90;;;;;;5048404;28;25068;-77
2022/04/01 00:36:47;;;;;;;14.57;10.45;;;1.00;99.90;;;;;;5055446;28;25077;-77
2022/04/01 00:39:14;;;;;;;13.88;9.88;;;1.00;99.90;;;;;;5058320;28;25113;-74
2022/04/01 00:41:40;;;;;;;12.85;10.60;;;0.90;99.90;;;;;;5044451;28;25127;-74
2022/04/01 00:44:19;;;;;;;12.07;9.98;;;0.90;99.90;;;;;;5037342;28;25161;-74
2022/04/01 00:46:47;;;;;;;16.85;11.98;;;0.90;99.90;;;;;;5042869;28;25124;-77
2022/04/01 00:49:13;;;;;;;13.88;10.77;;;0.90;99.90;;;;;;5045362;28;25090;-75
2022/04/01 00:51:42;;;;;;;15.52;11.52;;;1.00;99.90;;;;;;5039757;28;25070;-73
2022/04/01 00:54:09;;;;;;;13.57;11.10;;;0.90;99.90;;;;;;5019469;28;25101;-74
2022/04/01 00:56:35;;;;;;;18.23;12.90;;;0.90;99.90;;;;;;5032072;28;25183;-74
2022/04/01 00:59:02;;;;;;;14.75;11.40;;;0.90;99.90;;;;;;5047526;28;25144;-74
2022/04/01 01:01:30;;;;;;;17.15;12.70;;;0.80;99.90;;;;;;5048294;28;25141;-75
2022/04/01 01:04:07;;;;;;;15.35;11.43;;;0.90;99.90;;;;;;5042110;28;25112;-74
2022/04/01 01:06:37;;;;;;;16.23;11.68;;;0.80;99.90;;;;;;5044620;28;25181;-72
2022/04/01 01:09:03;;;;;;;17.73;11.57;;;0.80;99.90;;;;;;5012210;28;25081;-76
2022/04/01 01:11:30;;;;;;;17.35;13.27;;;0.80;99.90;;;;;;5030823;28;25069;-73
2022/04/01 01:13:56;;;;;;;18.48;12.93;;;0.90;99.90;;;;;;5036108;28;25052;-75
2022/04/01 01:16:22;;;;;;;16.83;12.52;;;0.70;99.90;;;;;;5027836;28;25069;-75
2022/04/01 01:19:05;;;;;;;15.00;10.75;;;0.70;99.90;;;;;;5041480;28;25068;-75
2022/04/01 01:21:31;;;;;;;16.73;11.77;;;0.70;99.90;;;;;;5029373;28;25104;-73
2022/04/01 01:24:07;;;;;;;14.30;10.95;;;0.80;99.90;;;;;;5027316;28;25102;-76
2022/04/01 01:26:35;;;;;;;16.52;11.80;;;0.70;99.90;;;;;;5026407;28;25117;-76
2022/04/01 01:29:03;;;;;;;14.30;11.63;;;0.70;99.90;;;;;;5033366;28;25082;-76
2022/04/01 01:31:29;;;;;;;19.00;13.35;;;0.70;99.90;;;;;;5013361;28;25087;-76
2022/04/01 01:33:56;;;;;;;13.77;10.63;;;0.80;99.90;;;;;;5042555;28;25128;-74
2022/04/01 01:36:23;;;;;;;20.10;12.02;;;0.70;99.90;;;;;;5029022;28;25076;-74
2022/04/01 01:38:49;;;;;;;15.38;11.40;;;0.60;99.90;;;;;;5037436;28;25083;-76
2022/04/01 01:41:15;;;;;;;16.25;11.68;;;0.70;99.90;;;;;;5029223;28;25080;-75
2022/04/01 01:43:41;;;;;;;15.18;11.02;;;0.70;99.90;;;;;;5035512;28;25083;-75
2022/04/01 01:46:07;;;;;;;14.82;11.95;;;0.70;99.90;;;;;;5044905;28;25062;-73
2022/04/01 01:48:33;;;;;;;18.20;12.15;;;0.70;99.90;;;;;;5028379;28;25050;-75
2022/04/01 01:56:28;;;;;;;16.65;12.13;;;0.70;99.90;;;;;;5039594;28;25080;-75
2022/04/01 01:58:54;;;;;;;20.48;13.35;;;0.60;99.90;;;;;;5055269;28;25141;-73
2022/04/01 02:01:21;;;;;;;20.23;13.75;;;0.70;99.90;;;;;;5050274;28;25123;-74
2022/04/01 02:03:46;;;;;;;19.38;12.95;;;0.70;99.90;;;;;;5013673;28;25064;-75
2022/04/01 02:06:13;;;;;;;20.67;13.52;;;0.70;99.90;;;;;;5020464;28;25141;-73
2022/04/01 02:08:38;;;;;;;26.90;14.48;;;0.70;99.90;;;;;;5035960;28;25068;-74
2022/04/01 02:11:05;;;;;;;22.92;15.50;;;0.70;99.90;;;;;;5041307;28;25123;-73
2022/04/01 02:13:31;;;;;;;20.15;14.55;;;0.70;99.90;;;;;;5019098;28;25063;-74
2022/04/01 02:15:57;;;;;;;20.25;13.60;;;0.60;99.90;;;;;;5018001;28;25156;-76
2022/04/01 02:18:23;;;;;;;25.63;15.52;;;0.60;99.90;;;;;;5020138;28;25077;-72
2022/04/01 02:20:50;;;;;;;23.73;15.35;;;0.70;99.90;;;;;;5024650;28;25066;-72
2022/04/01 02:23:16;;;;;;;19.73;15.00;;;0.60;99.90;;;;;;5036894;28;25103;-71
2022/04/01 02:25:42;;;;;;;29.40;18.55;;;0.60;99.90;;;;;;5038437;28;25057;-73
2022/04/01 02:28:09;;;;;;;22.15;14.70;;;0.60;99.90;;;;;;5021240;28;25128;-72
2022/04/01 02:30:34;;;;;;;24.30;15.05;;;0.60;99.90;;;;;;5038856;28;25067;-72
2022/04/01 02:33:00;;;;;;;27.77;17.08;;;0.50;99.90;;;;;;5045854;28;25094;-73
2022/04/01 02:35:26;;;;;;;24.80;17.00;;;0.60;99.90;;;;;;5033126;28;25074;-73
2022/04/01 02:37:51;;;;;;;24.08;16.75;;;0.60;99.90;;;;;;5049765;28;25083;-76
2022/04/01 02:40:17;;;;;;;22.00;15.90;;;0.60;99.90;;;;;;5057456;28;25098;-76
2022/04/01 02:42:43;;;;;;;26.65;17.48;;;0.60;99.90;;;;;;5044337;28;25057;-74
2022/04/01 02:45:09;;;;;;;29.73;17.65;;;0.60;99.90;;;;;;5018945;28;25110;-75
2022/04/01 02:47:35;;;;;;;27.10;18.02;;;0.60;99.90;;;;;;5030297;28;25186;-73
2022/04/01 02:50:01;;;;;;;25.65;16.30;;;0.60;99.90;;;;;;5024326;28;25075;-73
2022/04/01 02:52:27;;;;;;;28.00;18.05;;;0.50;99.90;;;;;;5018070;28;25074;-73
2022/04/01 02:54:53;;;;;;;28.55;17.40;;;0.60;99.90;;;;;;5036594;28;25068;-70
2022/04/01 02:57:20;;;;;;;28.65;18.02;;;0.60;99.90;;;;;;5021510;28;25143;-71
2022/04/01 02:59:47;;;;;;;24.27;16.85;;;0.60;99.90;;;;;;5017740;28;25251;-72
2022/04/01 03:02:12;;;;;;;22.20;16.08;;;0.60;99.90;;;;;;5022662;28;25068;-72
2022/04/01 03:04:38;;;;;;;17.05;14.88;;;0.60;99.90;;;;;;5039177;28;25072;-71
2022/04/01 03:07:04;;;;;;;26.83;17.42;;;0.60;99.90;;;;;;5043641;28;25134;-74
2022/04/01 03:09:30;;;;;;;26.83;18.15;;;0.60;99.90;;;;;;5034981;28;25062;-73
2022/04/01 03:11:56;;;;;;;22.15;15.50;;;0.60;99.90;;;;;;5056325;28;25067;-70
2022/04/01 03:14:22;;;;;;;26.90;17.08;;;0.50;99.90;;;;;;5057106;28;25061;-75
2022/04/01 03:16:48;;;;;;;26.35;17.48;;;0.60;99.90;;;;;;5054491;28;25057;-73
2022/04/01 03:19:16;;;;;;;22.85;16.23;;;0.50;99.90;;;;;;5062015;28;25055;-72
2022/04/01 03:21:42;;;;;;;28.20;17.38;;;0.50;99.90;;;;;;5055693;28;25052;-71
2022/04/01 03:24:11;;;;;;;24.30;15.73;;;0.50;99.90;;;;;;5042141;28;25074;-72
2022/04/01 03:26:38;;;;;;;22.50;15.10;;;0.50;99.90;;;;;;5028905;28;25064;-72
2022/04/01 03:29:06;;;;;;;28.10;17.17;;;0.50;99.90;;;;;;5031046;28;25073;-71
2022/04/01 03:31:32;;;;;;;18.15;12.95;;;0.50;99.90;;;;;;5043310;28;25165;-71
2022/04/01 03:33:57;;;;;;;23.42;15.00;;;0.50;99.90;;;;;;5033695;28;25108;-72
2022/04/01 03:36:23;;;;;;;25.50;15.90;;;0.50;99.90;;;;;;5034216;28;25159;-72
2022/04/01 03:38:49;;;;;;;22.25;15.73;;;0.60;99.90;;;;;;5038275;28;25061;-73
2022/04/01 03:41:14;;;;;;;17.38;13.02;;;0.50;99.90;;;;;;5039225;28;25078;-71
2022/04/01 03:43:40;;;;;;;21.83;15.25;;;0.50;99.90;;;;;;5036492;28;25113;-72
2022/04/01 03:46:13;;;;;;;21.83;14.43;;;0.50;99.90;;;;;;5029341;28;25048;-72
2022/04/01 03:48:44;;;;;;;23.35;15.45;;;0.50;99.90;;;;;;5030092;28;25076;-72
2022/04/01 03:51:17;;;;;;;18.77;14.43;;;0.50;99.90;;;;;;5029230;28;25131;-74
2022/04/01 03:53:52;;;;;;;20.88;14.18;;;0.50;99.90;;;;;;5011116;28;25055;-73
2022/04/01 03:56:22;;;;;;;21.95;13.68;;;0.60;99.90;;;;;;5029390;28;25149;-71
2022/04/01 03:58:49;;;;;;;19.83;13.80;;;0.50;99.90;;;;;;5028945;28;25101;-72
2022/04/01 04:01:15;;;;;;;20.02;14.10;;;0.50;99.90;;;;;;5006437;28;25070;-72
2022/04/01 04:03:42;;;;;;;21.10;14.77;;;0.60;99.90;;;;;;5028792;28;25057;-72
2022/04/01 04:06:11;;;;;;;17.80;13.40;;;0.60;99.90;;;;;;5028867;28;25127;-72
2022/04/01 04:08:38;;;;;;;20.40;13.68;;;0.60;99.90;;;;;;5038370;28;25058;-71
2022/04/01 04:11:04;;;;;;;20.42;13.65;;;0.50;99.90;;;;;;5036500;28;25045;-71
2022/04/01 04:13:31;;;;;;;19.80;13.65;;;0.50;99.90;;;;;;5038784;28;25116;-72
2022/04/01 04:16:29;;;;;;;17.42;12.75;;;0.50;99.90;;;;;;5050708;28;25060;-73
2022/04/01 04:19:18;;;;;;;16.02;12.40;;;0.50;99.90;;;;;;4989369;28;25151;-72
2022/04/01 04:21:55;;;;;;;18.63;12.77;;;0.60;99.90;;;;;;5047775;28;25083;-72
2022/04/01 04:24:37;;;;;;;21.30;14.50;;;0.50;99.90;;;;;;5049490;28;25100;-72
2022/04/01 04:27:11;;;;;;;18.77;13.57;;;0.60;99.90;;;;;;5011503;28;25115;-71
2022/04/01 04:29:50;;;;;;;20.85;12.70;;;0.60;99.90;;;;;;5012366;28;25095;-71
2022/04/01 04:32:24;;;;;;;17.27;11.15;;;0.60;99.90;;;;;;5020827;28;25113;-72
2022/04/01 04:34:50;;;;;;;18.52;12.20;;;0.60;99.90;;;;;;5031856;28;25096;-70
2022/04/01 04:37:21;;;;;;;17.83;13.13;;;0.60;99.90;;;;;;5020192;28;25154;-72
2022/04/01 04:39:49;;;;;;;20.98;11.77;;;0.60;99.90;;;;;;5031908;28;25086;-71
2022/04/01 04:42:15;;;;;;;17.00;11.80;;;0.60;99.90;;;;;;5032365;28;25078;-72
2022/04/01 04:44:43;;;;;;;17.05;12.52;;;0.60;99.90;;;;;;5044073;28;25123;-75
2022/04/01 04:47:12;;;;;;;17.08;10.60;;;0.60;99.90;;;;;;5031514;28;25088;-76
2022/04/01 04:49:42;;;;;;;13.45;9.93;;;0.60;99.90;;;;;;5030294;28;25072;-75
2022/04/01 04:52:08;;;;;;;16.25;10.52;;;0.70;99.90;;;;;;5028612;28;25053;-75
2022/04/01 04:54:39;;;;;;;9.88;8.18;;;0.60;99.90;;;;;;5034251;28;25050;-73
2022/04/01 04:57:06;;;;;;;10.82;8.52;;;0.60;99.90;;;;;;5027802;28;25135;-75
2022/04/01 04:59:34;;;;;;;12.93;8.18;;;0.70;99.90;;;;;;5029054;28;25062;-78
2022/04/01 05:02:10;;;;;;;12.05;8.70;;;0.80;99.90;;;;;;5038533;28;25049;-73
2022/04/01 05:05:00;;;;;;;13.35;9.68;;;0.80;99.90;;;;;;5030692;28;25093;-72
2022/04/01 05:07:56;;;;;;;13.95;9.35;;;0.70;99.90;;;;;;5028773;28;25074;-74
2022/04/01 05:10:41;;;;;;;13.00;9.07;;;0.70;99.90;;;;;;5045604;28;25061;-75
2022/04/01 05:13:20;;;;;;;11.45;8.77;;;0.80;99.90;;;;;;5015355;28;25077;-77
2022/04/01 05:15:51;;;;;;;12.68;8.93;;;0.90;99.90;;;;;;5032635;28;25064;-76
2022/04/01 05:18:49;;;;;;;11.02;8.00;;;0.90;99.90;;;;;;5022929;28;25058;-76
2022/04/01 05:21:20;;;;;;;12.07;7.82;;;0.80;99.90;;;;;;5013295;28;25078;-76
2022/04/01 05:23:58;;;;;;;12.25;8.27;;;0.80;99.90;;;;;;5023354;28;25160;-79
2022/04/01 05:26:38;;;;;;;14.13;7.97;;;0.80;99.90;;;;;;5019361;28;25058;-78
2022/04/01 05:29:07;;;;;;;10.02;8.13;;;0.80;99.90;;;;;;5018165;28;25066;-74
2022/04/01 05:31:42;;;;;;;11.77;8.27;;;0.90;99.90;;;;;;5024719;28;25051;-75
2022/04/01 05:34:32;;;;;;;12.55;8.32;;;0.90;99.90;;;;;;5019913;28;25093;-74
2022/04/01 05:36:58;;;;;;;13.82;8.25;;;1.00;99.90;;;;;;5018156;28;25063;-77
2022/04/01 05:39:28;;;;;;;13.57;8.02;;;0.90;99.90;;;;;;5023752;28;25067;-76
2022/04/01 05:41:54;;;;;;;11.15;7.72;;;1.00;99.90;;;;;;5014178;28;25063;-74
2022/04/01 05:44:21;;;;;;;9.65;7.55;;;0.90;99.90;;;;;;5007682;28;25088;-75
2022/04/01 05:46:50;;;;;;;12.10;8.23;;;1.00;99.90;;;;;;5024255;28;25051;-73
2022/04/01 05:49:17;;;;;;;13.07;8.20;;;0.90;99.90;;;;;;5018569;28;25157;-74
2022/04/01 05:51:46;;;;;;;10.10;7.57;;;0.90;99.90;;;;;;5022257;28;25151;-74
2022/04/01 05:54:14;;;;;;;10.38;7.80;;;1.00;99.90;;;;;;5024656;28;25099;-74
2022/04/01 05:56:44;;;;;;;11.18;9.15;;;1.00;99.90;;;;;;5024339;28;25059;-75
2022/04/01 05:59:12;;;;;;;13.18;8.55;;;1.00;99.90;;;;;;5020905;28;25111;-76
2022/04/01 06:02:12;;;;;;;11.35;9.02;;;0.90;99.90;;;;;;5016497;28;25068;-76
2022/04/01 06:05:06;;;;;;;10.20;8.35;;;1.00;99.90;;;;;;5014804;28;25075;-75
2022/04/01 06:07:38;;;;;;;15.55;8.63;;;0.90;99.90;;;;;;5012168;28;25066;-75
2022/04/01 06:10:09;;;;;;;12.45;8.48;;;1.00;99.90;;;;;;5024317;28;25081;-74
2022/04/01 06:12:58;;;;;;;13.10;8.38;;;1.00;99.90;;;;;;5003540;28;25056;-73
2022/04/01 06:15:53;;;;;;;12.38;8.20;;;1.00;99.90;;;;;;5023958;28;25102;-76
2022/04/01 06:18:33;;;;;;;12.30;7.63;;;0.90;99.90;;;;;;5024269;28;25070;-76
2022/04/01 06:21:03;;;;;;;9.68;6.82;;;0.90;99.90;;;;;;5024428;28;25118;-79
2022/04/01 06:23:47;;;;;;;9.23;7.47;;;0.90;99.90;;;;;;5019487;28;25081;-76
2022/04/01 06:26:13;;;;;;;10.98;7.50;;;0.90;99.90;;;;;;5019961;28;25246;-75
2022/04/01 06:28:55;;;;;;;21.45;7.90;;;0.90;99.90;;;;;;5024111;28;25143;-74
2022/04/01 06:31:22;;;;;;;17.85;7.50;;;0.90;99.90;;;;;;5012766;28;25078;-73
2022/04/01 06:34:10;;;;;;;10.57;7.30;;;0.90;99.90;;;;;;5024659;28;25133;-71
2022/04/01 06:36:46;;;;;;;11.52;8.02;;;0.90;99.90;;;;;;5021304;28;25164;-74
2022/04/01 06:39:31;;;;;;;11.82;7.13;;;0.80;99.90;;;;;;5015014;28;25082;-79
2022/04/01 06:41:59;;;;;;;11.00;7.20;;;0.90;99.90;;;;;;5020194;28;25118;-75
2022/04/01 06:44:25;;;;;;;15.50;7.55;;;0.90;99.90;;;;;;5013328;28;25060;-73
2022/04/01 06:46:51;;;;;;;26.73;9.10;;;0.90;99.90;;;;;;5018910;28;25080;-74
2022/04/01 06:49:17;;;;;;;15.93;7.32;;;0.90;99.90;;;;;;5015782;28;25073;-73
2022/04/01 06:51:43;;;;;;;10.32;7.15;;;0.90;99.90;;;;;;5011807;28;25159;-72
2022/04/01 06:54:09;;;;;;;10.18;7.10;;;0.90;99.90;;;;;;5009812;28;25059;-77
2022/04/01 06:56:34;;;;;;;12.73;6.85;;;1.00;99.90;;;;;;5015031;28;25061;-74
2022/04/01 06:59:00;;;;;;;18.65;7.72;;;1.00;99.90;;;;;;5014363;28;25081;-73
2022/04/01 07:01:26;;;;;;;8.40;6.53;;;1.00;99.90;;;;;;5028512;28;25042;-74
2022/04/01 07:03:52;;;;;;;14.70;7.75;;;0.90;99.90;;;;;;5032066;28;25094;-75
2022/04/01 07:06:22;;;;;;;11.23;7.55;;;1.00;99.90;;;;;;5014483;28;25053;-72
2022/04/01 07:08:51;;;;;;;12.57;7.53;;;0.90;99.90;;;;;;5031171;28;25142;-72
2022/04/01 07:11:16;;;;;;;9.75;7.15;;;1.00;99.90;;;;;;5013169;28;25047;-72
2022/04/01 07:13:42;;;;;;;11.05;6.28;;;0.90;99.90;;;;;;5031124;28;25071;-71
2022/04/01 07:16:07;;;;;;;10.73;6.03;;;1.00;99.90;;;;;;5030516;28;25087;-71
2022/04/01 07:18:34;;;;;;;8.95;6.05;;;1.00;99.90;;;;;;5011314;28;25066;-71
2022/04/01 07:21:00;;;;;;;9.45;6.55;;;0.90;99.90;;;;;;5020774;28;25151;-74
2022/04/01 07:23:26;;;;;;;10.63;5.45;;;1.00;99.90;;;;;;5020790;28;25176;-72
2022/04/01 07:25:52;;;;;;;10.07;5.07;;;1.10;99.90;;;;;;5017582;28;25073;-71
2022/04/01 07:28:17;;;;;;;10.95;4.82;;;1.10;99.90;;;;;;5025484;28;25147;-70
2022/04/01 07:30:43;;;;;;;7.60;5.20;;;1.00;99.90;;;;;;5019034;28;25107;-70
2022/04/01 07:33:10;;;;;;;8.93;4.97;;;1.00;99.90;;;;;;5018722;28;25112;-72
2022/04/01 07:35:36;;;;;;;7.78;4.38;;;1.10;99.90;;;;;;5045164;28;25069;-72
2022/04/01 07:38:03;;;;;;;7.40;4.68;;;1.00;99.90;;;;;;5045113;28;25056;-74
2022/04/01 07:40:28;;;;;;;11.00;5.00;;;1.10;99.90;;;;;;5036143;28;25066;-73
2022/04/01 07:42:54;;;;;;;9.85;4.70;;;1.20;99.90;;;;;;5035520;28;25141;-73
2022/04/01 07:45:20;;;;;;;9.20;4.75;;;1.30;99.90;;;;;;5032387;28;25066;-72
2022/04/01 07:47:47;;;;;;;8.25;4.90;;;1.30;99.90;;;;;;5023322;28;25097;-73
2022/04/01 07:50:14;;;;;;;8.05;4.45;;;1.30;99.90;;;;;;5015380;28;25054;-73
2022/04/01 07:52:43;;;;;;;10.15;4.38;;;1.40;99.90;;;;;;5031050;28;25065;-76
2022/04/01 07:55:09;;;;;;;6.75;4.05;;;1.30;99.90;;;;;;5030603;28;25088;-71
2022/04/01 07:57:36;;;;;;;8.88;3.50;;;1.50;99.90;;;;;;5008806;28;25067;-72
2022/04/01 08:00:04;;;;;;;4.53;3.25;;;1.50;99.90;;;;;;5013273;28;25156;-73
2022/04/01 08:02:29;;;;;;;8.98;4.40;;;1.60;99.90;;;;;;5029965;28;25120;-73
2022/04/01 08:04:55;;;;;;;7.13;3.70;;;1.80;99.90;;;;;;5029988;28;25110;-79
2022/04/01 08:07:22;;;;;;;5.28;3.50;;;1.70;99.40;;;;;;5011951;28;25088;-76
2022/04/01 08:09:49;;;;;;;7.80;3.40;;;1.70;98.30;;;;;;5032542;28;25066;-73
2022/04/01 08:12:15;;;;;;;6.55;3.55;;;1.80;98.70;;;;;;5034783;28;25098;-74
2022/04/01 08:14:42;;;;;;;6.78;3.50;;;1.90;98.10;;;;;;5012367;28;25146;-72
2022/04/01 08:17:11;;;;;;;14.20;3.58;;;1.90;97.50;;;;;;5031552;28;25086;-73
2022/04/01 08:19:39;;;;;;;5.55;3.33;;;1.90;96.90;;;;;;5030392;28;25057;-73
2022/04/01 08:22:05;;;;;;;7.65;3.20;;;2.00;96.00;;;;;;5029805;28;25080;-75
2022/04/01 08:24:31;;;;;;;6.63;2.88;;;2.00;95.30;;;;;;5030226;28;25076;-73
2022/04/01 08:26:59;;;;;;;6.60;3.55;;;2.00;94.70;;;;;;5030772;28;25137;-73
2022/04/01 08:29:29;;;;;;;6.85;3.40;;;2.10;94.80;;;;;;5031434;28;25082;-73
2022/04/01 08:31:55;;;;;;;7.10;3.55;;;2.20;93.80;;;;;;5032268;28;25078;-75
2022/04/01 08:34:21;;;;;;;6.40;3.60;;;2.20;93.60;;;;;;5031050;28;25074;-72
2022/04/01 08:36:47;;;;;;;8.95;3.08;;;2.30;91.70;;;;;;5031815;28;25056;-75
2022/04/01 08:39:12;;;;;;;6.18;3.25;;;2.50;91.00;;;;;;5013201;28;25175;-74
2022/04/01 08:41:38;;;;;;;5.82;2.90;;;2.70;90.80;;;;;;5031402;28;25068;-74
2022/04/01 08:44:04;;;;;;;7.38;2.63;;;2.60;87.80;;;;;;5031434;28;25115;-76
2022/04/01 08:46:30;;;;;;;6.05;2.60;;;2.70;89.70;;;;;;5046553;28;25048;-77
2022/04/01 08:48:56;;;;;;;5.80;2.50;;;2.70;88.80;;;;;;5031481;28;25069;-76
2022/04/01 08:51:22;;;;;;;6.15;2.45;;;2.60;84.60;;;;;;5032451;28;25073;-78
2022/04/01 08:53:48;;;;;;;5.60;2.85;;;2.60;85.00;;;;;;5032094;28;25049;-76
2022/04/01 08:56:19;;;;;;;4.88;2.60;;;2.70;84.60;;;;;;5031741;28;25063;-76
2022/04/01 08:58:45;;;;;;;8.20;2.85;;;2.80;85.80;;;;;;5031410;28;25109;-73
2022/04/01 09:01:12;;;;;;;2.70;2.08;;;2.70;81.80;;;;;;5031416;28;25074;-75
2022/04/01 09:03:38;;;;;;;11.80;2.15;;;2.70;80.90;;;;;;5030783;28;25052;-77
2022/04/01 09:06:06;;;;;;;4.68;2.17;;;2.60;79.10;;;;;;5032538;28;25061;-77
2022/04/01 09:08:37;;;;;;;3.65;2.30;;;2.70;80.60;;;;;;5032630;28;25169;-75
2022/04/01 09:11:06;;;;;;;5.93;2.00;;;2.60;78.50;;;;;;5014408;28;25069;-74
2022/04/01 09:13:43;;;;;;;6.97;2.70;;;2.70;78.50;;;;;;5032087;28;25078;-77
2022/04/01 09:16:22;;;;;;;4.18;2.40;;;2.70;79.30;;;;;;5030691;28;25408;-75
2022/04/01 09:18:48;;;;;;;7.90;2.60;;;2.70;77.70;;;;;;5032032;28;25074;-74
2022/04/01 09:21:14;;;;;;;6.30;2.35;;;2.70;76.40;;;;;;5031219;28;25084;-78
2022/04/01 09:23:46;;;;;;;5.18;2.50;;;2.70;77.60;;;;;;5030771;28;25060;-75
2022/04/01 09:26:12;;;;;;;5.05;2.10;;;2.80;77.90;;;;;;5016819;28;25058;-77
2022/04/01 09:28:39;;;;;;;7.03;2.95;;;2.70;77.30;;;;;;5031645;28;25065;-75
2022/04/01 09:31:12;;;;;;;6.43;2.45;;;2.60;75.50;;;;;;5032255;28;25071;-78
2022/04/01 09:33:44;;;;;;;4.75;2.38;;;2.70;77.80;;;;;;5031799;28;25074;-77
2022/04/01 09:36:41;;;;;;;6.45;2.70;;;2.70;76.40;;;;;;5034098;28;25058;-78
2022/04/01 09:39:11;;;;;;;3.53;2.40;;;2.70;75.00;;;;;;4997303;28;25062;-73
2022/04/01 09:41:41;;;;;;;3.03;2.63;;;2.80;75.70;;;;;;5030284;28;25061;-76
2022/04/01 09:44:12;;;;;;;4.18;2.67;;;2.80;73.30;;;;;;5031333;28;25111;-75
2022/04/01 09:46:52;;;;;;;7.22;2.45;;;2.90;74.70;;;;;;5032696;28;25124;-78
2022/04/01 09:49:42;;;;;;;9.45;3.47;;;3.00;74.70;;;;;;5033234;28;25102;-77
2022/04/01 09:52:18;;;;;;;5.30;2.80;;;3.20;75.70;;;;;;5032581;28;25074;-73
2022/04/01 09:54:52;;;;;;;5.47;2.05;;;3.30;74.90;;;;;;5033979;28;25131;-77
2022/04/01 09:57:20;;;;;;;5.50;2.72;;;3.20;74.10;;;;;;5034180;28;25065;-74
2022/04/01 09:59:47;;;;;;;3.60;2.58;;;3.20;71.40;;;;;;5034692;28;25132;-78
2022/04/01 10:02:13;;;;;;;6.03;2.60;;;3.30;71.70;;;;;;5034464;28;25141;-77
2022/04/01 10:04:39;;;;;;;3.45;2.20;;;3.40;73.50;;;;;;5034074;28;25071;-75
2022/04/01 10:07:05;;;;;;;5.90;2.60;;;3.40;70.60;;;;;;5032520;28;25161;-73
2022/04/01 10:09:31;;;;;;;6.00;2.25;;;3.60;71.50;;;;;;5032727;28;25074;-75
2022/04/01 10:12:00;;;;;;;5.13;2.45;;;3.70;71.20;;;;;;5031642;28;25071;-76
2022/04/01 10:14:27;;;;;;;3.35;2.17;;;3.60;71.10;;;;;;5033140;28;25054;-78
2022/04/01 10:17:00;;;;;;;4.22;2.17;;;3.50;69.70;;;;;;5034801;28;25162;-72
2022/04/01 10:19:29;;;;;;;6.15;2.20;;;3.40;69.90;;;;;;5036687;28;25083;-74
2022/04/01 10:21:55;;;;;;;2.25;1.90;;;3.60;70.20;;;;;;5036781;28;25056;-76
2022/04/01 10:24:47;;;;;;;4.50;2.30;;;3.40;66.40;;;;;;5043466;28;25084;-79
2022/04/01 10:27:40;;;;;;;6.67;2.27;;;3.50;68.00;;;;;;5054074;28;25070;-78
2022/04/01 10:30:09;;;;;;;3.50;2.42;;;3.60;65.30;;;;;;5056130;28;25091;-76
2022/04/01 10:32:34;;;;;;;10.25;2.13;;;3.80;63.60;;;;;;5056074;28;25064;-80
2022/04/01 10:35:01;;;;;;;5.30;2.03;;;3.70;64.70;;;;;;5053734;28;25093;-80
2022/04/01 10:37:30;;;;;;;5.68;2.25;;;3.80;63.30;;;;;;5045201;28;25065;-77
2022/04/01 10:39:59;;;;;;;4.05;2.03;;;4.00;66.30;;;;;;5024229;28;25076;-76
2022/04/01 10:42:36;;;;;;;7.47;2.53;;;3.90;63.90;;;;;;5042687;28;25058;-78
2022/04/01 10:45:21;;;;;;;5.47;2.70;;;3.70;65.90;;;;;;5040446;28;25151;-74
2022/04/01 10:53:56;;;;;;;7.35;2.38;;;3.70;66.30;;;;;;5037152;28;25147;-74
2022/04/01 10:56:23;;;;;;;5.13;2.50;;;3.70;64.50;;;;;;5037537;28;25142;-78
2022/04/01 10:59:13;;;;;;;5.32;2.22;;;3.80;63.70;;;;;;5039703;28;25109;-77
2022/04/01 11:01:43;;;;;;;4.20;2.40;;;3.70;63.20;;;;;;5020409;28;25115;-76
2022/04/01 11:04:12;;;;;;;10.00;2.50;;;3.70;62.80;;;;;;5037539;28;25075;-76
2022/04/01 11:06:58;;;;;;;2.35;2.10;;;3.60;61.30;;;;;;5037039;28;25081;-78
2022/04/01 11:09:46;;;;;;;2.60;1.60;;;3.80;65.00;;;;;;5022666;28;25052;-77
2022/04/01 11:12:15;;;;;;;4.93;2.00;;;3.90;62.00;;;;;;5026403;28;25100;-75
2022/04/01 11:17:38;;;;;;;4.68;2.33;;;3.80;60.90;;;;;;5035818;28;25092;-76
2022/04/01 11:20:09;;;;;;;4.72;2.45;;;3.90;61.20;;;;;;5038060;28;25152;-75
2022/04/01 11:22:42;;;;;;;3.50;2.15;;;4.00;60.80;;;;;;5037546;28;25135;-75
2022/04/01 11:25:27;;;;;;;2.67;1.90;;;4.30;58.60;;;;;;5046374;28;25156;-78
2022/04/01 11:27:56;;;;;;;3.63;2.13;;;4.20;57.90;;;;;;5035386;28;25062;-79
2022/04/01 11:30:24;;;;;;;2.67;2.00;;;4.00;59.60;;;;;;5048233;28;25074;-78
2022/04/01 11:32:56;;;;;;;3.20;2.60;;;4.30;61.00;;;;;;5038558;28;25073;-77
2022/04/01 11:35:26;;;;;;;3.97;2.42;;;4.10;55.30;;;;;;5018623;28;25056;-75
2022/04/01 11:37:52;;;;;;;6.28;2.47;;;3.90;57.00;;;;;;5021933;28;25134;-77
2022/04/01 11:40:26;;;;;;;3.35;2.30;;;4.20;57.40;;;;;;5036958;28;25074;-78
2022/04/01 11:43:11;;;;;;;2.50;2.13;;;4.40;58.40;;;;;;5036335;28;25089;-78
2022/04/01 11:45:56;;;;;;;4.95;2.30;;;4.50;57.50;;;;;;5038031;28;25058;-75
2022/04/01 11:48:38;;;;;;;7.05;2.80;;;4.40;56.40;;;;;;5039102;28;25063;-78
2022/04/01 11:51:18;;;;;;;4.10;2.85;;;4.60;55.60;;;;;;5037134;28;25107;-79
2022/04/01 11:53:51;;;;;;;3.20;2.40;;;4.40;55.60;;;;;;5036482;28;25075;-78
2022/04/01 11:56:22;;;;;;;4.68;2.47;;;4.20;54.90;;;;;;5018290;28;25085;-77
2022/04/01 11:58:47;;;;;;;3.65;2.42;;;4.10;57.50;;;;;;5036966;28;25063;-78
2022/04/01 12:01:17;;;;;;;3.47;2.28;;;4.20;57.90;;;;;;5039802;28;25122;-79
2022/04/01 12:03:42;;;;;;;7.47;2.45;;;4.30;57.80;;;;;;5039039;28;25069;-80
2022/04/01 12:08:52;;;;;;;4.35;3.03;;;4.10;56.40;;;;;;5040116;28;25080;-77
2022/04/01 12:11:18;;;;;;;5.47;3.50;;;4.00;57.30;;;;;;5040394;28;25077;-78
2022/04/01 12:13:53;;;;;;;8.70;3.28;;;3.80;56.30;;;;;;5042550;28;25101;-76
2022/04/01 12:16:21;;;;;;;4.80;2.55;;;4.00;57.70;;;;;;5041050;28;25077;-79
2022/04/01 12:18:48;;;;;;;4.07;2.85;;;4.30;55.00;;;;;;5043775;28;25050;-79
2022/04/01 12:21:22;;;;;;;5.10;3.17;;;4.80;55.30;;;;;;5041943;28;25095;-80
2022/04/01 12:23:49;;;;;;;3.78;3.33;;;4.60;49.60;;;;;;5040146;28;25076;-77
2022/04/01 12:26:17;;;;;;;10.70;4.32;;;4.50;53.00;;;;;;5040532;28;25126;-75
2022/04/01 12:28:45;;;;;;;6.00;4.35;;;4.40;56.50;;;;;;5039311;28;25104;-76
2022/04/01 12:31:22;;;;;;;5.78;3.22;;;4.30;57.30;;;;;;5024622;28;25073;-76
2022/04/01 12:33:50;;;;;;;6.05;3.53;;;4.10;57.80;;;;;;5038926;28;25056;-74
2022/04/01 12:36:30;;;;;;;5.85;3.45;;;4.20;57.40;;;;;;5040036;28;25060;-78
2022/04/01 12:39:08;;;;;;;5.25;4.10;;;4.30;54.60;;;;;;5040514;28;25076;-79
2022/04/01 12:41:34;;;;;;;6.93;4.03;;;4.10;53.90;;;;;;5006408;28;25075;-76
2022/04/01 12:44:11;;;;;;;4.78;3.58;;;3.90;54.00;;;;;;5038296;28;25060;-77
2022/04/01 12:46:37;;;;;;;7.15;3.50;;;3.90;54.80;;;;;;5039190;28;25174;-76
2022/04/01 12:49:17;;;;;;;4.80;4.07;;;4.00;55.10;;;;;;5042686;28;25084;-77
2022/04/01 12:52:01;;;;;;;6.95;4.43;;;4.00;55.70;;;;;;5036577;28;25095;-77
2022/04/01 12:54:28;;;;;;;7.57;4.05;;;4.00;57.20;;;;;;5035259;28;25136;-79
2022/04/01 12:56:55;;;;;;;7.07;4.32;;;3.90;56.50;;;;;;5035198;28;25088;-76
2022/04/01 12:59:21;;;;;;;7.57;4.38;;;3.80;57.50;;;;;;5035952;28;25087;-77
2022/04/01 13:01:57;;;;;;;8.60;4.63;;;3.80;58.50;;;;;;5017440;28;25065;-78
2022/04/01 13:04:23;;;;;;;6.57;4.20;;;3.90;57.40;;;;;;5035237;28;25084;-77
2022/04/01 13:07:05;;;;;;;7.32;4.10;;;3.90;56.30;;;;;;5034379;28;25125;-77
2022/04/01 13:09:31;;;;;;;6.70;4.22;;;4.00;54.60;;;;;;5034784;28;25069;-76
2022/04/01 13:11:58;;;;;;;5.45;3.70;;;4.00;54.00;;;;;;5035042;28;25104;-78
2022/04/01 13:14:28;;;;;;;8.13;4.75;;;4.00;53.10;;;;;;5033097;28;25060;-77
2022/04/01 13:16:56;;;;;;;7.57;4.40;;;4.00;53.70;;;;;;5015968;28;25064;-81
2022/04/01 13:19:37;;;;;;;9.75;4.20;;;3.90;53.50;;;;;;5034726;28;25080;-78
2022/04/01 13:22:05;;;;;;;5.35;3.85;;;4.00;53.90;;;;;;5033146;28;25140;-79